createdAt,value
2022-08-17T00:03:05.939Z,23.99
2022-08-17T00:07:17.541Z,23.93
2022-08-17T00:11:36.545Z,23.93
2022-08-17T00:15:49.530Z,23.92
2022-08-17T00:20:01.170Z,23.93
2022-08-17T00:24:13.905Z,23.95
2022-08-17T00:28:25.564Z,23.97
2022-08-17T00:33:15.899Z,23.94
2022-08-17T00:37:11.378Z,23.88
2022-08-17T00:41:26.124Z,23.86
2022-08-17T00:45:37.771Z,23.80
2022-08-17T00:49:49.404Z,23.80
2022-08-17T00:54:20.300Z,23.75
2022-08-17T00:58:36.453Z,23.70
2022-08-17T01:02:48.947Z,23.70
2022-08-17T01:07:03.386Z,23.71
2022-08-17T01:11:15.074Z,23.69
2022-08-17T01:15:27.172Z,23.71
2022-08-17T01:19:41.964Z,23.68
2022-08-17T01:23:53.754Z,23.69
2022-08-17T01:28:06.000Z,23.65
2022-08-17T01:32:19.338Z,23.68
2022-08-17T01:36:30.926Z,23.65
2022-08-17T01:40:57.677Z,23.63
2022-08-17T01:45:17.591Z,23.70
2022-08-17T01:49:29.440Z,23.62
2022-08-17T01:53:43.456Z,23.63
2022-08-17T01:57:55.196Z,23.61
2022-08-17T02:02:07.659Z,23.53
2022-08-17T02:06:27.822Z,23.44
2022-08-17T02:10:39.926Z,23.37
2022-08-17T02:14:58.516Z,23.30
2022-08-17T02:19:16.469Z,23.18
2022-08-17T02:23:32.273Z,23.03
2022-08-17T02:27:44.145Z,22.92
2022-08-17T02:31:58.026Z,22.78
2022-08-17T02:36:11.099Z,22.71
2022-08-17T02:40:35.993Z,22.64
2022-08-17T02:44:48.086Z,22.57
2022-08-17T02:48:59.902Z,22.53
2022-08-17T02:53:11.782Z,22.49
2022-08-17T02:57:24.185Z,22.46
2022-08-17T03:01:35.883Z,22.44
2022-08-17T03:05:49.466Z,22.43
2022-08-17T03:10:01.154Z,22.39
2022-08-17T03:14:12.779Z,22.38
2022-08-17T03:18:26.317Z,22.38
2022-08-17T03:22:47.978Z,22.41
2022-08-17T03:27:05.156Z,22.36
2022-08-17T03:31:18.340Z,22.39
2022-08-17T03:35:33.669Z,22.36
2022-08-17T03:39:45.281Z,22.33
2022-08-17T03:43:57.056Z,22.34
2022-08-17T03:48:28.394Z,22.39
2022-08-17T03:52:58.817Z,22.47
2022-08-17T03:57:11.617Z,22.50
2022-08-17T04:01:23.388Z,22.57
2022-08-17T04:05:35.114Z,22.60
2022-08-17T04:09:46.902Z,22.62
2022-08-17T04:13:58.753Z,22.66
2022-08-17T04:18:11.045Z,22.66
2022-08-17T04:22:32.656Z,22.69
2022-08-17T04:26:50.582Z,22.63
2022-08-17T04:31:06.112Z,22.62
2022-08-17T04:35:31.569Z,22.62
2022-08-17T04:40:04.516Z,22.61
2022-08-17T04:44:36.814Z,22.58
2022-08-17T04:48:50.704Z,22.57
2022-08-17T04:53:02.534Z,22.57
2022-08-17T04:57:14.197Z,22.56
2022-08-17T05:01:28.477Z,22.63
2022-08-17T05:05:49.476Z,22.65
2022-08-17T05:10:01.197Z,22.57
2022-08-17T05:14:13.937Z,22.57
2022-08-17T05:18:26.773Z,22.55
2022-08-17T05:22:49.372Z,22.56
2022-08-17T05:27:06.010Z,22.63
2022-08-17T05:31:18.456Z,22.68
2022-08-17T05:35:33.088Z,22.69
2022-08-17T05:39:44.728Z,22.68
2022-08-17T05:43:56.760Z,22.69
2022-08-17T05:48:10.210Z,22.76
2022-08-17T05:52:40.539Z,22.81
2022-08-17T05:56:58.240Z,22.90
2022-08-17T06:01:33.519Z,22.96
2022-08-17T06:06:03.834Z,22.99
2022-08-17T06:10:24.789Z,23.01
2022-08-17T06:14:39.290Z,23.01
2022-08-17T06:19:00.935Z,23.02
2022-08-17T06:23:18.271Z,23.03
2022-08-17T06:27:45.849Z,23.16
2022-08-17T06:31:57.658Z,23.19
2022-08-17T06:36:24.693Z,23.10
2022-08-17T06:41:18.946Z,23.61
2022-08-17T06:45:35.725Z,23.85
2022-08-17T06:49:55.737Z,24.06
2022-08-17T06:54:15.198Z,23.80
2022-08-17T06:58:31.313Z,23.49
2022-08-17T07:02:55.545Z,23.30
2022-08-17T07:07:28.838Z,23.38
2022-08-17T07:12:00.683Z,23.26
2022-08-17T07:16:19.564Z,23.14
2022-08-17T07:20:31.423Z,22.95
2022-08-17T07:24:53.409Z,22.85
2022-08-17T07:29:05.960Z,22.81
2022-08-17T07:33:30.237Z,22.77
2022-08-17T07:37:54.026Z,22.84
2022-08-17T07:42:05.763Z,22.99
2022-08-17T07:46:41.901Z,23.09
2022-08-17T07:50:53.642Z,23.19
2022-08-17T07:55:30.403Z,23.26
2022-08-17T08:00:03.533Z,23.21
2022-08-17T08:04:59.687Z,23.26
2022-08-17T08:09:32.709Z,23.34
2022-08-17T08:13:45.779Z,23.37
2022-08-17T08:18:00.423Z,23.38
2022-08-17T08:22:22.079Z,23.41
2022-08-17T08:26:43.439Z,23.46
2022-08-17T08:31:06.581Z,23.67
2022-08-17T08:35:37.283Z,24.03
2022-08-17T08:39:58.128Z,24.31
2022-08-17T08:44:18.899Z,24.57
2022-08-17T08:49:11.829Z,24.74
2022-08-17T08:53:58.424Z,24.83
2022-08-17T08:58:32.038Z,24.81
2022-08-17T09:02:55.770Z,24.70
2022-08-17T09:07:29.666Z,24.75
2022-08-17T09:12:08.425Z,24.68
2022-08-17T09:16:29.737Z,24.45
2022-08-17T09:20:57.155Z,24.38
2022-08-17T09:25:13.457Z,24.33
2022-08-17T09:29:29.465Z,24.36
2022-08-17T09:33:45.953Z,24.62
2022-08-17T09:38:06.705Z,25.15
2022-08-17T09:42:35.954Z,26.04
2022-08-17T09:47:03.790Z,26.39
2022-08-17T09:51:22.064Z,26.33
2022-08-17T09:56:15.432Z,26.56
2022-08-17T10:00:35.053Z,26.67
2022-08-17T10:05:08.802Z,26.83
2022-08-17T10:09:41.862Z,26.83
2022-08-17T10:14:38.036Z,26.85
2022-08-17T10:19:13.810Z,26.83
2022-08-17T10:23:47.950Z,26.68
2022-08-17T10:28:06.517Z,26.51
2022-08-17T10:32:27.843Z,26.47
2022-08-17T10:36:54.679Z,26.59
2022-08-17T10:41:15.247Z,26.64
2022-08-17T10:45:47.040Z,26.50
2022-08-17T10:50:37.958Z,26.34
2022-08-17T10:54:58.212Z,26.19
2022-08-17T10:59:36.233Z,26.13
2022-08-17T11:03:55.039Z,26.11
2022-08-17T11:08:36.194Z,26.14
2022-08-17T11:13:01.132Z,26.05
2022-08-17T11:17:45.680Z,26.00
2022-08-17T11:22:34.771Z,25.81
2022-08-17T11:27:12.333Z,25.69
2022-08-17T11:31:41.686Z,25.43
2022-08-17T11:36:25.154Z,25.23
2022-08-17T11:41:15.777Z,24.92
2022-08-17T11:45:49.825Z,24.79
2022-08-17T11:50:48.902Z,24.61
2022-08-17T11:55:17.962Z,24.38
2022-08-17T11:59:36.406Z,24.35
2022-08-17T12:03:57.721Z,24.37
2022-08-17T12:08:23.083Z,24.55
2022-08-17T12:12:35.902Z,24.72
2022-08-17T12:17:01.974Z,24.63
2022-08-17T12:21:22.265Z,24.44
2022-08-17T12:26:09.400Z,24.35
2022-08-17T12:30:22.179Z,24.18
2022-08-17T12:34:39.975Z,24.16
2022-08-17T12:39:12.771Z,24.07
2022-08-17T12:43:31.177Z,24.19
2022-08-17T12:47:43.412Z,24.27
2022-08-17T12:52:12.630Z,24.51
2022-08-17T12:56:24.270Z,24.41
2022-08-17T13:00:41.137Z,24.45
2022-08-17T13:05:01.050Z,24.38
2022-08-17T13:09:19.592Z,24.30
2022-08-17T13:13:37.977Z,24.36
2022-08-17T13:17:59.610Z,24.38
2022-08-17T13:22:12.653Z,24.24
2022-08-17T13:26:35.235Z,24.31
2022-08-17T13:30:47.730Z,24.39
2022-08-17T13:35:12.959Z,24.55
2022-08-17T13:39:27.324Z,24.52
2022-08-17T13:43:49.555Z,24.53
2022-08-17T13:48:19.729Z,24.44
2022-08-17T13:52:37.813Z,24.34
2022-08-17T13:57:07.720Z,24.39
2022-08-17T14:01:32.719Z,24.55
2022-08-17T14:05:46.016Z,24.48
2022-08-17T14:10:01.382Z,24.30
2022-08-17T14:14:14.125Z,24.22
2022-08-17T14:18:34.262Z,24.22
2022-08-17T14:22:58.117Z,24.19
2022-08-17T14:27:09.926Z,24.27
2022-08-17T14:31:22.028Z,24.55
2022-08-17T14:35:34.439Z,24.83
2022-08-17T14:39:46.292Z,24.93
2022-08-17T14:43:57.995Z,25.05
2022-08-17T14:48:10.563Z,25.22
2022-08-17T14:52:22.805Z,25.32
2022-08-17T14:56:37.847Z,25.53
2022-08-17T15:00:51.003Z,25.75
2022-08-17T15:05:05.905Z,25.85
2022-08-17T15:09:17.851Z,26.19
2022-08-17T15:13:30.422Z,26.55
2022-08-17T15:17:55.133Z,26.63
2022-08-17T15:22:16.013Z,26.61
2022-08-17T15:26:28.418Z,26.61
2022-08-17T15:30:43.045Z,26.50
2022-08-17T15:35:00.223Z,26.35
2022-08-17T15:39:11.938Z,26.46
2022-08-17T15:43:28.298Z,26.29
2022-08-17T15:47:40.465Z,26.18
2022-08-17T15:51:52.154Z,26.12
2022-08-17T15:56:05.409Z,26.18
2022-08-17T16:00:17.474Z,26.27
2022-08-17T16:04:30.722Z,26.07
2022-08-17T16:08:46.123Z,25.84
2022-08-17T16:12:58.642Z,25.81
2022-08-17T16:17:39.810Z,25.55
2022-08-17T16:21:42.755Z,25.46
2022-08-17T16:25:54.803Z,25.32
2022-08-17T16:30:07.586Z,25.22
2022-08-17T16:34:20.168Z,25.27
2022-08-17T16:38:31.865Z,25.18
2022-08-17T16:42:46.742Z,25.13
2022-08-17T16:47:00.948Z,25.02
2022-08-17T16:51:12.554Z,24.97
2022-08-17T16:55:24.111Z,25.00
2022-08-17T16:59:41.031Z,25.06
2022-08-17T17:03:59.543Z,25.08
2022-08-17T17:08:25.676Z,24.96
2022-08-17T17:13:02.781Z,25.13
2022-08-17T17:17:32.775Z,25.13
2022-08-17T17:21:56.547Z,25.05
2022-08-17T17:26:20.474Z,25.00
2022-08-17T17:30:55.067Z,25.02
2022-08-17T17:35:17.410Z,25.05
2022-08-17T17:39:48.896Z,25.08
2022-08-17T17:44:12.194Z,24.87
2022-08-17T17:48:24.293Z,24.64
2022-08-17T17:52:53.264Z,24.48
2022-08-17T17:57:21.275Z,24.35
2022-08-17T18:02:03.642Z,24.16
2022-08-17T18:06:45.257Z,23.94
2022-08-17T18:11:06.557Z,23.83
2022-08-17T18:15:37.486Z,23.73
2022-08-17T18:19:49.332Z,23.64
2022-08-17T18:24:03.106Z,23.60
2022-08-17T18:28:39.679Z,23.54
2022-08-17T18:32:51.210Z,23.47
2022-08-17T18:37:07.860Z,23.38
2022-08-17T18:41:25.261Z,23.29
2022-08-17T18:45:50.105Z,23.18
2022-08-17T18:50:25.809Z,23.15
2022-08-17T18:54:37.750Z,23.07
2022-08-17T18:59:06.187Z,22.98
2022-08-17T19:03:20.716Z,22.97
2022-08-17T19:07:52.703Z,22.96
2022-08-17T19:12:10.393Z,22.92
2022-08-17T19:16:44.949Z,22.86
2022-08-17T19:21:05.801Z,22.75
2022-08-17T19:25:23.231Z,22.65
2022-08-17T19:29:38.397Z,22.53
2022-08-17T19:33:50.442Z,22.45
2022-08-17T19:39:17.605Z,22.38
2022-08-17T19:44:32.033Z,22.31
2022-08-17T19:49:32.945Z,22.18
2022-08-17T20:06:14.011Z,21.81
2022-08-17T20:11:09.762Z,21.65
2022-08-17T20:15:39.475Z,21.54
2022-08-17T20:20:06.505Z,21.59
2022-08-17T20:24:46.171Z,21.60
2022-08-17T20:29:20.012Z,21.47
2022-08-17T20:33:49.853Z,21.53
2022-08-17T20:38:08.418Z,21.47
2022-08-17T20:42:20.102Z,21.53
2022-08-17T20:46:37.913Z,21.50
2022-08-17T20:51:18.326Z,21.44
2022-08-17T20:55:52.602Z,21.41
2022-08-17T21:00:35.093Z,21.33
2022-08-17T21:04:53.864Z,21.42
2022-08-17T21:09:32.703Z,21.32
2022-08-17T21:14:12.683Z,21.20
2022-08-17T21:18:32.896Z,21.24
2022-08-17T21:23:11.070Z,21.19
2022-08-17T21:27:48.554Z,21.18
2022-08-17T21:32:02.021Z,21.23
2022-08-17T21:36:14.148Z,21.26
2022-08-17T21:40:29.069Z,21.28
2022-08-17T21:44:49.077Z,21.38
2022-08-17T21:49:13.459Z,21.44
2022-08-17T21:53:33.765Z,21.41
2022-08-17T21:57:52.963Z,21.45
2022-08-17T22:02:21.356Z,21.51
2022-08-17T22:06:39.173Z,21.52
2022-08-17T22:11:00.624Z,21.49
2022-08-17T22:15:17.666Z,21.50
2022-08-17T22:19:29.422Z,21.51
2022-08-17T22:24:03.983Z,21.52
2022-08-17T22:28:39.877Z,21.54
2022-08-17T22:32:51.575Z,21.52
2022-08-17T22:37:27.991Z,21.51
2022-08-17T22:41:41.516Z,21.46
2022-08-17T22:45:56.024Z,21.48
2022-08-17T22:50:23.165Z,21.42
2022-08-17T22:54:53.347Z,21.42
2022-08-17T22:59:20.570Z,21.37
2022-08-17T23:03:32.212Z,21.35
2022-08-17T23:07:46.657Z,21.26
2022-08-17T23:11:58.971Z,21.14
2022-08-17T23:16:10.588Z,21.03
2022-08-17T23:20:22.214Z,20.99
2022-08-17T23:24:42.038Z,20.87
2022-08-17T23:28:54.039Z,20.80
2022-08-17T23:33:11.556Z,20.69
2022-08-17T23:37:23.255Z,20.72
2022-08-17T23:41:38.884Z,20.73
2022-08-17T23:45:50.531Z,20.70
2022-08-17T23:50:05.459Z,20.79
2022-08-17T23:54:24.637Z,20.76
2022-08-17T23:58:38.476Z,20.84
